createdAt,value
2023-04-11T00:01:02.407Z,86
2023-04-11T00:02:09.471Z,86
2023-04-11T00:03:16.582Z,86
2023-04-11T00:04:26.177Z,86
2023-04-11T00:05:33.055Z,86
2023-04-11T00:06:39.894Z,86
2023-04-11T00:07:46.704Z,86
2023-04-11T00:08:53.816Z,86
2023-04-11T00:10:00.470Z,86
2023-04-11T00:11:07.351Z,86
2023-04-11T00:12:14.146Z,86
2023-04-11T00:13:20.933Z,86
2023-04-11T00:14:27.765Z,86
2023-04-11T00:15:37.696Z,86
2023-04-11T00:16:44.527Z,86
2023-04-11T00:17:51.391Z,86
2023-04-11T00:18:58.224Z,86
2023-04-11T00:20:05.085Z,86
2023-04-11T00:21:12.110Z,86
2023-04-11T00:22:19.066Z,86
2023-04-11T00:23:25.973Z,86
2023-04-11T00:24:32.678Z,86
2023-04-11T00:25:39.481Z,86
2023-04-11T00:26:46.289Z,86
2023-04-11T00:27:53.217Z,86
2023-04-11T00:29:00.148Z,86
2023-04-11T00:30:06.951Z,86
2023-04-11T00:31:13.996Z,86
2023-04-11T00:32:20.701Z,86
2023-04-11T00:33:27.459Z,86
2023-04-11T00:34:34.408Z,86
2023-04-11T00:35:41.198Z,85
2023-04-11T00:36:48.013Z,85
2023-04-11T00:37:54.731Z,85
2023-04-11T00:39:01.548Z,85
2023-04-11T00:40:08.366Z,85
2023-04-11T00:41:15.319Z,86
2023-04-11T00:42:22.116Z,86
2023-04-11T00:43:28.931Z,85
2023-04-11T00:44:35.684Z,85
2023-04-11T00:45:42.768Z,85
2023-04-11T00:46:49.572Z,85
2023-04-11T00:47:56.421Z,85
2023-04-11T00:49:03.158Z,85
2023-04-11T00:50:09.967Z,85
2023-04-11T00:51:16.795Z,85
2023-04-11T00:52:23.627Z,85
2023-04-11T00:53:30.463Z,85
2023-04-11T00:54:39.977Z,85
2023-04-11T00:55:46.742Z,85
2023-04-11T00:56:53.559Z,86
2023-04-11T00:58:03.334Z,86
2023-04-11T00:59:10.145Z,86
2023-04-11T01:00:17.071Z,86
2023-04-11T01:01:25.161Z,86
2023-04-11T01:02:30.795Z,86
2023-04-11T01:03:37.532Z,85
2023-04-11T01:04:44.439Z,85
2023-04-11T01:05:51.325Z,85
2023-04-11T01:06:58.121Z,85
2023-04-11T01:08:04.907Z,85
2023-04-11T01:09:11.677Z,85
2023-04-11T01:10:18.729Z,85
2023-04-11T01:11:25.493Z,85
2023-04-11T01:12:32.243Z,85
2023-04-11T01:13:39.042Z,85
2023-04-11T01:14:45.845Z,85
2023-04-11T01:15:52.890Z,85
2023-04-11T01:16:59.763Z,85
2023-04-11T01:18:06.513Z,85
2023-04-11T01:19:13.331Z,85
2023-04-11T01:20:23.148Z,85
2023-04-11T01:21:29.970Z,85
2023-04-11T01:22:36.861Z,85
2023-04-11T01:23:43.705Z,85
2023-04-11T01:24:50.520Z,85
2023-04-11T01:25:57.277Z,85
2023-04-11T01:27:04.073Z,85
2023-04-11T01:28:11.045Z,85
2023-04-11T01:29:17.936Z,85
2023-04-11T01:30:24.728Z,85
2023-04-11T01:31:31.517Z,85
2023-04-11T01:32:38.308Z,85
2023-04-11T01:33:45.077Z,85
2023-04-11T01:34:52.019Z,85
2023-04-11T01:35:58.793Z,85
2023-04-11T01:37:05.534Z,85
2023-04-11T01:38:12.351Z,85
2023-04-11T01:39:19.316Z,85
2023-04-11T01:40:26.290Z,85
2023-04-11T01:41:33.054Z,85
2023-04-11T01:42:39.921Z,85
2023-04-11T01:43:46.706Z,85
2023-04-11T01:44:53.491Z,85
2023-04-11T01:46:00.427Z,85
2023-04-11T01:47:07.189Z,85
2023-04-11T01:48:14.101Z,85
2023-04-11T01:49:20.844Z,85
2023-04-11T01:50:27.637Z,85
2023-04-11T01:51:34.402Z,85
2023-04-11T01:52:41.210Z,85
2023-04-11T01:53:48.020Z,85
2023-04-11T01:54:54.773Z,84
2023-04-11T01:56:01.588Z,84
2023-04-11T01:57:08.717Z,85
2023-04-11T01:58:15.507Z,84
2023-04-11T01:59:22.260Z,85
2023-04-11T02:00:29.119Z,85
2023-04-11T02:01:36.084Z,85
2023-04-11T02:02:42.842Z,84
2023-04-11T02:03:49.768Z,85
2023-04-11T02:04:56.348Z,85
2023-04-11T02:06:03.155Z,85
2023-04-11T02:07:09.975Z,85
2023-04-11T02:08:16.840Z,85
2023-04-11T02:09:23.689Z,84
2023-04-11T02:10:30.478Z,85
2023-04-11T02:11:37.273Z,84
2023-04-11T02:12:44.091Z,85
2023-04-11T02:13:50.910Z,85
2023-04-11T02:14:57.645Z,85
2023-04-11T02:16:04.425Z,85
2023-04-11T02:17:11.495Z,85
2023-04-11T02:18:18.315Z,85
2023-04-11T02:19:25.128Z,85
2023-04-11T02:20:31.950Z,85
2023-04-11T02:21:38.789Z,85
2023-04-11T02:22:45.646Z,85
2023-04-11T02:23:52.540Z,85
2023-04-11T02:24:59.613Z,85
2023-04-11T02:26:06.454Z,85
2023-04-11T02:27:13.214Z,85
2023-04-11T02:28:20.047Z,85
2023-04-11T02:29:26.957Z,85
2023-04-11T02:30:33.855Z,85
2023-04-11T02:31:40.884Z,85
2023-04-11T02:32:47.499Z,85
2023-04-11T02:33:54.247Z,84
2023-04-11T02:35:01.004Z,84
2023-04-11T02:36:08.065Z,84
2023-04-11T02:37:14.843Z,84
2023-04-11T02:38:21.748Z,84
2023-04-11T02:39:28.546Z,85
2023-04-11T02:40:35.446Z,85
2023-04-11T02:41:42.408Z,85
2023-04-11T02:42:49.205Z,85
2023-04-11T02:43:56.015Z,85
2023-04-11T02:45:02.768Z,84
2023-04-11T02:46:12.979Z,84
2023-04-11T02:47:16.804Z,85
2023-04-11T02:48:23.589Z,85
2023-04-11T02:49:30.422Z,85
2023-04-11T02:50:37.257Z,85
2023-04-11T02:51:44.177Z,85
2023-04-11T02:52:51.103Z,85
2023-04-11T02:53:57.920Z,85
2023-04-11T02:55:04.796Z,85
2023-04-11T02:56:11.796Z,85
2023-04-11T02:57:18.620Z,85
2023-04-11T02:58:25.590Z,85
2023-04-11T02:59:32.363Z,85
2023-04-11T03:00:39.135Z,85
2023-04-11T03:01:46.012Z,85
2023-04-11T03:02:52.740Z,85
2023-04-11T03:03:59.707Z,85
2023-04-11T03:05:06.529Z,85
2023-04-11T03:06:13.436Z,85
2023-04-11T03:07:20.276Z,85
2023-04-11T03:08:27.212Z,85
2023-04-11T03:09:34.127Z,85
2023-04-11T03:10:41.090Z,85
2023-04-11T03:11:47.844Z,85
2023-04-11T03:12:54.662Z,85
2023-04-11T03:14:01.521Z,85
2023-04-11T03:15:08.486Z,85
2023-04-11T03:16:15.373Z,85
2023-04-11T03:17:22.184Z,85
2023-04-11T03:18:28.979Z,85
2023-04-11T03:19:35.752Z,85
2023-04-11T03:20:42.772Z,85
2023-04-11T03:21:49.775Z,85
2023-04-11T03:22:56.608Z,85
2023-04-11T03:24:03.435Z,85
2023-04-11T03:25:10.425Z,84
2023-04-11T03:26:17.264Z,85
2023-04-11T03:27:24.178Z,85
2023-04-11T03:28:30.952Z,85
2023-04-11T03:29:37.712Z,84
2023-04-11T03:30:44.530Z,84
2023-04-11T03:31:51.388Z,85
2023-04-11T03:32:58.386Z,84
2023-04-11T03:34:05.195Z,84
2023-04-11T03:35:12.063Z,84
2023-04-11T03:36:18.918Z,84
2023-04-11T03:37:28.692Z,85
2023-04-11T03:38:35.543Z,84
2023-04-11T03:39:42.580Z,84
2023-04-11T03:40:49.370Z,84
2023-04-11T03:41:56.194Z,84
2023-04-11T03:43:04.539Z,84
2023-04-11T03:44:09.781Z,84
2023-04-11T03:45:16.640Z,84
2023-04-11T03:46:23.517Z,84
2023-04-11T03:47:30.493Z,84
2023-04-11T03:48:37.334Z,84
2023-04-11T03:49:44.111Z,84
2023-04-11T03:50:51.042Z,84
2023-04-11T03:51:57.868Z,84
2023-04-11T03:53:04.664Z,84
2023-04-11T03:54:11.482Z,84
2023-04-11T03:55:18.265Z,84
2023-04-11T03:56:25.321Z,84
2023-04-11T03:57:32.287Z,84
2023-04-11T03:58:39.061Z,84
2023-04-11T03:59:45.903Z,84
2023-04-11T04:00:52.698Z,84
2023-04-11T04:01:59.611Z,84
2023-04-11T04:03:06.472Z,84
2023-04-11T04:04:13.207Z,84
2023-04-11T04:05:19.977Z,84
2023-04-11T04:06:26.795Z,84
2023-04-11T04:07:33.712Z,84
2023-04-11T04:08:40.593Z,84
2023-04-11T04:09:47.389Z,84
2023-04-11T04:10:54.264Z,84
2023-04-11T04:12:01.040Z,84
2023-04-11T04:13:08.141Z,84
2023-04-11T04:14:15.137Z,84
2023-04-11T04:15:21.964Z,84
2023-04-11T04:16:28.910Z,84
2023-04-11T04:17:35.757Z,84
2023-04-11T04:18:42.484Z,84
2023-04-11T04:19:49.329Z,84
2023-04-11T04:20:56.065Z,84
2023-04-11T04:22:02.860Z,85
2023-04-11T04:23:09.636Z,85
2023-04-11T04:24:16.399Z,85
2023-04-11T04:25:25.208Z,85
2023-04-11T04:26:30.097Z,85
2023-04-11T04:27:36.874Z,85
2023-04-11T04:28:43.710Z,85
2023-04-11T04:29:55.147Z,85
2023-04-11T04:30:57.314Z,85
2023-04-11T04:32:09.358Z,85
2023-04-11T04:33:16.194Z,85
2023-04-11T04:34:26.179Z,85
2023-04-11T04:35:32.999Z,85
2023-04-11T04:36:39.787Z,85
2023-04-11T04:37:51.712Z,85
2023-04-11T04:38:58.511Z,85
2023-04-11T04:40:05.287Z,85
2023-04-11T04:41:12.251Z,85
2023-04-11T04:42:19.079Z,85
2023-04-11T04:43:28.904Z,85
2023-04-11T04:44:35.728Z,86
2023-04-11T04:45:42.536Z,86
2023-04-11T04:46:49.313Z,86
2023-04-11T04:47:58.801Z,86
2023-04-11T04:49:05.584Z,86
2023-04-11T04:50:12.461Z,86
2023-04-11T04:51:19.267Z,86
2023-04-11T04:52:26.045Z,86
2023-04-11T04:53:32.814Z,86
2023-04-11T04:54:39.571Z,86
2023-04-11T04:55:46.432Z,86
2023-04-11T04:56:53.224Z,86
2023-04-11T04:58:00.003Z,86
2023-04-11T04:59:06.816Z,86
2023-04-11T05:00:13.603Z,86
2023-04-11T05:01:20.595Z,86
2023-04-11T05:02:27.422Z,86
2023-04-11T05:03:34.292Z,86
2023-04-11T05:04:40.975Z,86
2023-04-11T05:05:50.633Z,86
2023-04-11T05:06:57.459Z,86
2023-04-11T05:08:04.375Z,86
2023-04-11T05:09:11.161Z,86
2023-04-11T05:10:17.994Z,86
2023-04-11T05:11:24.846Z,86
2023-04-11T05:12:31.643Z,86
2023-04-11T05:13:38.655Z,86
2023-04-11T05:14:45.408Z,86
2023-04-11T05:15:52.242Z,86
2023-04-11T05:16:59.065Z,86
2023-04-11T05:18:05.825Z,86
2023-04-11T05:19:12.753Z,86
2023-04-11T05:20:19.610Z,86
2023-04-11T05:21:26.417Z,86
2023-04-11T05:22:33.163Z,86
2023-04-11T05:23:40.015Z,86
2023-04-11T05:24:46.933Z,86
2023-04-11T05:25:53.639Z,86
2023-04-11T05:27:00.454Z,86
2023-04-11T05:28:07.294Z,86
2023-04-11T05:29:14.049Z,86
2023-04-11T05:30:20.979Z,86
2023-04-11T05:31:27.968Z,86
2023-04-11T05:32:34.674Z,86
2023-04-11T05:33:41.463Z,86
2023-04-11T05:34:48.284Z,86
2023-04-11T05:35:55.121Z,86
2023-04-11T05:37:01.968Z,86
2023-04-11T05:38:08.765Z,86
2023-04-11T05:39:15.569Z,87
2023-04-11T05:40:22.367Z,87
2023-04-11T05:41:29.397Z,87
2023-04-11T05:42:36.285Z,87
2023-04-11T05:43:43.117Z,87
2023-04-11T05:44:49.958Z,87
2023-04-11T05:45:56.757Z,87
2023-04-11T05:47:03.780Z,88
2023-04-11T05:48:10.670Z,88
2023-04-11T05:49:17.491Z,88
2023-04-11T05:50:24.347Z,87
2023-04-11T05:51:31.219Z,87
2023-04-11T05:52:38.082Z,87
2023-04-11T05:53:44.998Z,87
2023-04-11T05:54:51.749Z,87
2023-04-11T05:55:58.521Z,87
2023-04-11T05:57:05.435Z,86
2023-04-11T05:58:12.369Z,86
2023-04-11T05:59:24.009Z,86
2023-04-11T06:00:26.146Z,86
2023-04-11T06:01:33.013Z,86
2023-04-11T06:02:39.952Z,86
2023-04-11T06:03:46.903Z,86
2023-04-11T06:04:53.542Z,86
2023-04-11T06:06:00.300Z,86
2023-04-11T06:07:07.255Z,86
2023-04-11T06:08:14.048Z,87
2023-04-11T06:09:20.924Z,87
2023-04-11T06:10:27.971Z,88
2023-04-11T06:11:34.726Z,87
2023-04-11T06:12:41.679Z,87
2023-04-11T06:13:48.470Z,86
2023-04-11T06:14:55.499Z,87
2023-04-11T06:16:02.482Z,86
2023-04-11T06:17:09.503Z,86
2023-04-11T06:18:16.346Z,86
2023-04-11T06:19:23.139Z,86
2023-04-11T06:20:30.202Z,86
2023-04-11T06:21:37.011Z,86
2023-04-11T06:22:43.787Z,86
2023-04-11T06:23:54.132Z,86
2023-04-11T06:24:58.075Z,86
2023-04-11T06:26:04.858Z,86
2023-04-11T06:27:11.874Z,86
2023-04-11T06:28:18.705Z,86
2023-04-11T06:29:25.571Z,85
2023-04-11T06:30:32.464Z,86
2023-04-11T06:31:39.336Z,85
2023-04-11T06:32:46.183Z,85
2023-04-11T06:33:53.214Z,85
2023-04-11T06:34:59.988Z,85
2023-04-11T06:36:06.947Z,84
2023-04-11T06:37:13.905Z,84
2023-04-11T06:38:20.819Z,85
2023-04-11T06:39:27.593Z,84
2023-04-11T06:40:34.415Z,84
2023-04-11T06:41:41.189Z,84
2023-04-11T06:42:48.022Z,84
2023-04-11T06:43:55.314Z,84
2023-04-11T06:45:01.986Z,84
2023-04-11T06:46:09.090Z,83
2023-04-11T06:47:15.915Z,84
2023-04-11T06:48:22.742Z,84
2023-04-11T06:49:29.650Z,84
2023-04-11T06:50:36.367Z,84
2023-04-11T06:51:43.126Z,84
2023-04-11T06:52:49.934Z,84
2023-04-11T06:53:57.044Z,83
2023-04-11T06:55:03.602Z,83
2023-04-11T06:56:10.875Z,83
2023-04-11T06:57:20.982Z,83
2023-04-11T06:58:27.808Z,83
2023-04-11T06:59:34.699Z,83
2023-04-11T07:00:41.523Z,83
2023-04-11T07:01:48.449Z,83
2023-04-11T07:02:55.413Z,83
2023-04-11T07:04:02.308Z,83
2023-04-11T07:05:08.947Z,83
2023-04-11T07:06:15.695Z,83
2023-04-11T07:07:25.742Z,83
2023-04-11T07:08:32.575Z,83
2023-04-11T07:09:39.438Z,83
2023-04-11T07:10:46.302Z,83
2023-04-11T07:11:53.070Z,83
2023-04-11T07:12:59.934Z,84
2023-04-11T07:14:06.755Z,84
2023-04-11T07:15:13.663Z,83
2023-04-11T07:16:20.585Z,83
2023-04-11T07:17:27.434Z,83
2023-04-11T07:18:34.098Z,83
2023-04-11T07:19:40.902Z,83
2023-04-11T07:20:47.927Z,83
2023-04-11T07:21:54.790Z,83
2023-04-11T07:23:01.630Z,83
2023-04-11T07:24:08.421Z,83
2023-04-11T07:25:15.262Z,83
2023-04-11T07:26:22.150Z,83
2023-04-11T07:27:28.958Z,83
2023-04-11T07:28:35.733Z,83
2023-04-11T07:29:42.527Z,83
2023-04-11T07:30:49.382Z,83
2023-04-11T07:31:56.265Z,83
2023-04-11T07:33:03.188Z,83
2023-04-11T07:34:09.955Z,83
2023-04-11T07:35:16.748Z,83
2023-04-11T07:36:23.610Z,82
2023-04-11T07:37:30.395Z,82
2023-04-11T07:38:37.265Z,82
2023-04-11T07:39:44.046Z,82
2023-04-11T07:40:50.855Z,81
2023-04-11T07:41:57.620Z,82
2023-04-11T07:43:04.406Z,81
2023-04-11T07:44:11.227Z,81
2023-04-11T07:45:18.146Z,81
2023-04-11T07:46:24.815Z,81
2023-04-11T07:47:31.637Z,81
2023-04-11T07:48:38.466Z,81
2023-04-11T07:49:45.293Z,81
2023-04-11T07:50:52.142Z,80
2023-04-11T07:51:58.984Z,80
2023-04-11T07:53:05.829Z,80
2023-04-11T07:54:12.710Z,79
2023-04-11T07:55:19.583Z,80
2023-04-11T07:56:26.377Z,80
2023-04-11T07:57:33.174Z,79
2023-04-11T07:58:40.047Z,79
2023-04-11T07:59:46.802Z,80
2023-04-11T08:00:53.827Z,79
2023-04-11T08:02:00.752Z,79
2023-04-11T08:03:07.716Z,78
2023-04-11T08:04:14.467Z,77
2023-04-11T08:05:21.252Z,77
2023-04-11T08:06:27.955Z,77
2023-04-11T08:07:34.903Z,77
2023-04-11T08:08:41.535Z,77
2023-04-11T08:09:48.419Z,76
2023-04-11T08:10:55.211Z,76
2023-04-11T08:12:02.154Z,75
2023-04-11T08:13:09.007Z,75
2023-04-11T08:14:15.791Z,75
2023-04-11T08:15:22.672Z,75
2023-04-11T08:16:29.528Z,75
2023-04-11T08:17:36.632Z,74
2023-04-11T08:18:43.327Z,74
2023-04-11T08:19:50.193Z,74
2023-04-11T08:20:57.045Z,74
2023-04-11T08:22:03.832Z,74
2023-04-11T08:23:10.770Z,74
2023-04-11T08:24:17.839Z,73
2023-04-11T08:25:24.456Z,73
2023-04-11T08:26:31.352Z,73
2023-04-11T08:27:38.151Z,72
2023-04-11T08:28:45.207Z,72
2023-04-11T08:29:52.278Z,71
2023-04-11T08:30:59.010Z,71
2023-04-11T08:32:05.835Z,72
2023-04-11T08:33:12.636Z,71
2023-04-11T08:34:19.514Z,71
2023-04-11T08:35:26.493Z,71
2023-04-11T08:36:33.402Z,71
2023-04-11T08:37:40.447Z,70
2023-04-11T08:38:47.161Z,70
2023-04-11T08:39:53.934Z,70
2023-04-11T08:41:00.818Z,70
2023-04-11T08:42:07.693Z,70
2023-04-11T08:43:24.870Z,70
2023-04-11T08:44:34.258Z,69
2023-04-11T08:45:41.248Z,69
2023-04-11T08:46:48.102Z,68
2023-04-11T08:47:55.011Z,69
2023-04-11T08:49:01.801Z,68
2023-04-11T08:50:08.635Z,67
2023-04-11T08:51:15.487Z,68
2023-04-11T08:52:25.101Z,68
2023-04-11T08:53:32.073Z,68
2023-04-11T08:54:38.981Z,67
2023-04-11T08:55:45.886Z,67
2023-04-11T08:56:52.797Z,67
2023-04-11T08:57:59.799Z,68
2023-04-11T08:59:06.855Z,68
2023-04-11T09:00:13.911Z,68
2023-04-11T09:01:21.331Z,68
2023-04-11T09:02:28.498Z,68
2023-04-11T09:03:35.400Z,68
2023-04-11T09:04:52.636Z,67
2023-04-11T09:05:59.475Z,67
2023-04-11T09:07:06.430Z,67
2023-04-11T09:08:13.400Z,67
2023-04-11T09:09:20.297Z,66
2023-04-11T09:10:32.419Z,66
2023-04-11T09:11:39.490Z,67
2023-04-11T09:12:54.160Z,67
2023-04-11T09:14:01.032Z,67
2023-04-11T09:15:08.070Z,67
2023-04-11T09:16:20.224Z,67
2023-04-11T09:17:27.270Z,67
2023-04-11T09:18:34.307Z,66
2023-04-11T09:19:41.238Z,66
2023-04-11T09:20:48.287Z,66
2023-04-11T09:21:55.182Z,66
2023-04-11T09:23:02.083Z,65
2023-04-11T09:24:09.221Z,65
2023-04-11T09:25:19.254Z,65
2023-04-11T09:26:26.431Z,65
2023-04-11T09:27:33.479Z,64
2023-04-11T09:28:40.322Z,65
2023-04-11T09:29:47.183Z,64
2023-04-11T09:30:54.219Z,64
2023-04-11T09:32:00.992Z,64
2023-04-11T09:33:07.972Z,64
2023-04-11T09:34:22.574Z,63
2023-04-11T09:35:29.415Z,63
2023-04-11T09:36:36.289Z,62
2023-04-11T09:37:43.181Z,63
2023-04-11T09:38:57.994Z,63
2023-04-11T09:40:05.769Z,62
2023-04-11T09:41:11.978Z,61
2023-04-11T09:42:18.845Z,61
2023-04-11T09:43:28.223Z,61
2023-04-11T09:44:45.493Z,62
2023-04-11T09:45:54.692Z,61
2023-04-11T09:47:04.526Z,62
2023-04-11T09:48:11.221Z,62
2023-04-11T09:49:18.012Z,62
2023-04-11T09:50:24.890Z,61
2023-04-11T09:51:36.760Z,60
2023-04-11T09:52:38.774Z,60
2023-04-11T09:53:45.613Z,60
2023-04-11T09:54:52.418Z,59
2023-04-11T09:55:59.289Z,59
2023-04-11T09:57:06.329Z,59
2023-04-11T09:58:13.246Z,58
2023-04-11T09:59:19.970Z,59
2023-04-11T10:00:26.817Z,58
2023-04-11T10:01:33.669Z,58
2023-04-11T10:02:40.800Z,58
2023-04-11T10:03:47.485Z,58
2023-04-11T10:04:54.324Z,58
2023-04-11T10:06:01.105Z,58
2023-04-11T10:07:07.877Z,57
2023-04-11T10:08:17.761Z,57
2023-04-11T10:09:29.772Z,58
2023-04-11T10:10:36.523Z,58
2023-04-11T10:11:43.447Z,58
2023-04-11T10:12:50.265Z,57
2023-04-11T10:13:57.391Z,56
2023-04-11T10:15:03.931Z,57
2023-04-11T10:16:10.981Z,57
2023-04-11T10:17:23.151Z,55
2023-04-11T10:18:27.272Z,55
2023-04-11T10:19:34.183Z,56
2023-04-11T10:20:41.202Z,55
2023-04-11T10:21:48.041Z,55
2023-04-11T10:22:54.862Z,55
2023-04-11T10:24:01.892Z,54
2023-04-11T10:25:16.755Z,54
2023-04-11T10:26:23.786Z,54
2023-04-11T10:27:38.742Z,53
2023-04-11T10:28:51.732Z,54
2023-04-11T10:29:58.688Z,54
2023-04-11T10:31:05.620Z,54
2023-04-11T10:32:12.416Z,54
2023-04-11T10:33:22.108Z,53
2023-04-11T10:34:29.066Z,53
2023-04-11T10:35:35.898Z,54
2023-04-11T10:36:53.092Z,54
2023-04-11T10:38:05.117Z,52
2023-04-11T10:39:11.891Z,52
2023-04-11T10:40:18.762Z,52
2023-04-11T10:41:25.720Z,51
2023-04-11T10:42:32.552Z,52
2023-04-11T10:43:39.385Z,52
2023-04-11T10:44:46.189Z,52
2023-04-11T10:45:53.084Z,53
2023-04-11T10:47:10.389Z,52
2023-04-11T10:48:17.145Z,51
2023-04-11T10:49:24.065Z,52
2023-04-11T10:50:41.340Z,52
2023-04-11T10:51:48.287Z,50
2023-04-11T10:52:55.081Z,51
2023-04-11T10:54:02.686Z,50
2023-04-11T10:55:08.692Z,50
2023-04-11T10:56:18.192Z,50
2023-04-11T10:57:30.189Z,49
2023-04-11T10:58:36.957Z,49
2023-04-11T10:59:43.854Z,49
2023-04-11T11:00:53.804Z,50
2023-04-11T11:02:03.924Z,51
2023-04-11T11:03:10.905Z,50
2023-04-11T11:04:17.802Z,50
2023-04-11T11:05:24.458Z,50
2023-04-11T11:06:31.274Z,50
2023-04-11T11:07:38.100Z,50
2023-04-11T11:08:44.917Z,50
2023-04-11T11:09:51.673Z,50
2023-04-11T11:10:58.537Z,50
2023-04-11T11:12:05.300Z,49
2023-04-11T11:13:14.859Z,50
2023-04-11T11:14:21.730Z,50
2023-04-11T11:15:31.433Z,50
2023-04-11T11:16:38.315Z,50
2023-04-11T11:17:45.309Z,49
2023-04-11T11:18:52.040Z,50
2023-04-11T11:19:58.928Z,49
2023-04-11T11:21:05.906Z,49
2023-04-11T11:22:12.650Z,50
2023-04-11T11:23:22.379Z,50
2023-04-11T11:24:29.231Z,51
2023-04-11T11:25:36.066Z,50
2023-04-11T11:26:42.940Z,51
2023-04-11T11:27:49.755Z,50
2023-04-11T11:29:06.985Z,49
2023-04-11T11:30:13.918Z,47
2023-04-11T11:31:20.795Z,47
2023-04-11T11:32:27.621Z,49
2023-04-11T11:33:34.657Z,49
2023-04-11T11:34:41.607Z,49
2023-04-11T11:35:48.468Z,49
2023-04-11T11:37:00.565Z,49
2023-04-11T11:38:10.270Z,49
2023-04-11T11:39:17.118Z,49
2023-04-11T11:40:23.986Z,49
2023-04-11T11:41:30.809Z,50
2023-04-11T11:42:40.546Z,50
2023-04-11T11:43:47.461Z,50
2023-04-11T11:44:54.293Z,49
2023-04-11T11:46:01.099Z,49
2023-04-11T11:47:13.887Z,49
2023-04-11T11:48:20.674Z,48
2023-04-11T11:49:27.643Z,48
2023-04-11T11:50:44.871Z,48
2023-04-11T11:51:51.884Z,48
2023-04-11T11:52:58.645Z,48
2023-04-11T11:54:15.776Z,46
2023-04-11T11:55:22.690Z,46
2023-04-11T11:56:29.582Z,47
2023-04-11T11:57:36.459Z,47
2023-04-11T11:58:48.564Z,47
2023-04-11T11:59:55.354Z,47
2023-04-11T12:01:02.136Z,48
2023-04-11T12:02:10.840Z,48
2023-04-11T12:03:17.710Z,48
2023-04-11T12:04:24.580Z,47
2023-04-11T12:05:31.335Z,48
2023-04-11T12:06:38.027Z,49
2023-04-11T12:07:44.823Z,48
2023-04-11T12:08:51.664Z,48
2023-04-11T12:09:58.606Z,47
2023-04-11T12:11:05.453Z,47
2023-04-11T12:12:12.231Z,46
2023-04-11T12:13:19.023Z,46
2023-04-11T12:14:25.818Z,47
2023-04-11T12:15:32.857Z,47
2023-04-11T12:16:39.609Z,47
2023-04-11T12:17:46.422Z,47
2023-04-11T12:18:55.945Z,47
2023-04-11T12:20:02.831Z,47
2023-04-11T12:21:09.865Z,47
2023-04-11T12:22:16.689Z,47
2023-04-11T12:23:23.526Z,47
2023-04-11T12:24:30.351Z,47
2023-04-11T12:25:37.173Z,46
2023-04-11T12:26:52.947Z,46
2023-04-11T12:27:50.839Z,46
2023-04-11T12:28:58.089Z,46
2023-04-11T12:30:04.634Z,47
2023-04-11T12:31:11.588Z,47
2023-04-11T12:32:18.503Z,47
2023-04-11T12:33:25.372Z,47
2023-04-11T12:34:32.314Z,47
2023-04-11T12:35:39.103Z,48
2023-04-11T12:36:46.013Z,48
2023-04-11T12:37:52.791Z,48
2023-04-11T12:38:59.803Z,48
2023-04-11T12:40:06.796Z,48
2023-04-11T12:41:31.393Z,48
2023-04-11T12:42:24.209Z,48
2023-04-11T12:43:30.278Z,48
2023-04-11T12:44:37.154Z,48
2023-04-11T12:45:44.151Z,49
2023-04-11T12:46:50.998Z,49
2023-04-11T12:47:57.896Z,48
2023-04-11T12:49:04.648Z,49
2023-04-11T12:50:11.477Z,49
2023-04-11T12:51:18.273Z,49
2023-04-11T12:52:25.175Z,49
2023-04-11T12:53:31.974Z,49
2023-04-11T12:54:38.795Z,49
2023-04-11T12:55:45.732Z,49
2023-04-11T12:57:49.473Z,48
2023-04-11T12:58:56.557Z,49
2023-04-11T13:00:03.334Z,49
2023-04-11T13:01:10.499Z,49
2023-04-11T13:02:18.262Z,49
2023-04-11T13:03:25.166Z,49
2023-04-11T13:04:34.389Z,49
2023-04-11T13:05:41.258Z,49
2023-04-11T13:06:48.142Z,49
2023-04-11T13:07:55.101Z,50
2023-04-11T13:09:02.027Z,50
2023-04-11T13:10:09.073Z,50
2023-04-11T13:11:16.006Z,50
2023-04-11T13:12:22.867Z,50
2023-04-11T13:13:29.735Z,50
2023-04-11T13:14:36.573Z,51
2023-04-11T13:15:43.428Z,51
2023-04-11T13:16:50.660Z,51
2023-04-11T13:17:57.707Z,51
2023-04-11T13:19:04.553Z,51
2023-04-11T13:20:11.554Z,51
2023-04-11T13:21:18.446Z,52
2023-04-11T13:22:25.376Z,52
2023-04-11T13:23:32.299Z,52
2023-04-11T13:24:39.208Z,52
2023-04-11T13:25:46.104Z,53
2023-04-11T13:26:53.025Z,53
2023-04-11T13:28:00.053Z,53
2023-04-11T13:29:06.976Z,53
2023-04-11T13:30:13.880Z,53
2023-04-11T13:31:20.888Z,53
2023-04-11T13:32:27.914Z,53
2023-04-11T13:33:34.801Z,54
2023-04-11T13:34:41.914Z,54
2023-04-11T13:35:48.804Z,54
2023-04-11T13:36:55.667Z,54
2023-04-11T13:38:02.529Z,54
2023-04-11T13:39:09.646Z,54
2023-04-11T13:40:16.568Z,54
2023-04-11T13:41:23.488Z,53
2023-04-11T13:42:30.350Z,54
2023-04-11T13:43:37.268Z,54
2023-04-11T13:44:44.142Z,54
2023-04-11T13:45:51.069Z,54
2023-04-11T13:46:57.976Z,54
2023-04-11T13:48:04.972Z,54
2023-04-11T13:49:11.802Z,54
2023-04-11T13:50:18.714Z,54
2023-04-11T13:51:25.581Z,54
2023-04-11T13:52:32.503Z,54
2023-04-11T13:53:39.392Z,55
2023-04-11T13:54:46.416Z,55
2023-04-11T13:55:53.265Z,55
2023-04-11T13:57:00.750Z,56
2023-04-11T13:58:08.467Z,56
2023-04-11T13:59:15.418Z,56
2023-04-11T14:00:22.344Z,57
2023-04-11T14:01:29.313Z,57
2023-04-11T14:02:36.267Z,58
2023-04-11T14:03:43.235Z,58
2023-04-11T14:04:50.050Z,58
2023-04-11T14:05:56.890Z,59
2023-04-11T14:07:08.400Z,60
2023-04-11T14:08:21.650Z,61
2023-04-11T14:09:30.776Z,61
2023-04-11T14:10:37.763Z,62
2023-04-11T14:11:44.666Z,63
2023-04-11T14:12:51.563Z,63
2023-04-11T14:13:58.708Z,64
2023-04-11T14:15:05.479Z,64
2023-04-11T14:16:12.847Z,65
2023-04-11T14:17:22.899Z,66
2023-04-11T14:18:29.836Z,67
2023-04-11T14:19:36.715Z,67
2023-04-11T14:20:43.598Z,68
2023-04-11T14:21:50.486Z,69
2023-04-11T14:22:57.380Z,71
2023-04-11T14:24:04.179Z,73
2023-04-11T14:25:11.201Z,73
2023-04-11T14:26:18.174Z,74
2023-04-11T14:27:25.021Z,76
2023-04-11T14:28:32.012Z,76
2023-04-11T14:29:38.919Z,76
2023-04-11T14:30:45.861Z,77
2023-04-11T14:31:52.800Z,77
2023-04-11T14:32:59.570Z,77
2023-04-11T14:34:06.480Z,77
2023-04-11T14:35:13.501Z,77
2023-04-11T14:36:20.293Z,79
2023-04-11T14:37:27.266Z,79
2023-04-11T14:38:34.108Z,81
2023-04-11T14:39:41.117Z,81
2023-04-11T14:40:48.455Z,81
2023-04-11T14:41:55.515Z,83
2023-04-11T14:43:03.343Z,83
2023-04-11T14:44:10.199Z,84
2023-04-11T14:45:17.204Z,85
2023-04-11T14:46:26.024Z,84
2023-04-11T14:47:33.965Z,85
2023-04-11T14:48:40.799Z,84
2023-04-11T14:49:47.651Z,85
2023-04-11T14:50:56.562Z,85
2023-04-11T14:52:03.453Z,85
2023-04-11T14:53:10.458Z,85
2023-04-11T14:54:19.456Z,85
2023-04-11T14:55:26.311Z,85
2023-04-11T14:56:36.505Z,85
2023-04-11T14:57:44.266Z,85
2023-04-11T14:58:51.100Z,86
2023-04-11T14:59:59.654Z,86
2023-04-11T15:01:06.693Z,85
2023-04-11T15:02:13.848Z,85
2023-04-11T15:03:20.828Z,85
2023-04-11T15:04:27.524Z,85
2023-04-11T15:05:37.239Z,85
2023-04-11T15:06:44.135Z,85
2023-04-11T15:07:54.936Z,85
2023-04-11T15:09:01.858Z,85
2023-04-11T15:10:09.903Z,85
2023-04-11T15:11:20.403Z,85
2023-04-11T15:12:30.194Z,85
2023-04-11T15:13:37.369Z,85
2023-04-11T15:14:45.135Z,85
2023-04-11T15:15:52.064Z,85
2023-04-11T15:17:07.022Z,85
2023-04-11T15:18:13.887Z,85
2023-04-11T15:19:20.782Z,85
2023-04-11T15:20:27.579Z,86
2023-04-11T15:21:34.483Z,85
2023-04-11T15:22:42.567Z,85
2023-04-11T15:23:49.453Z,85
2023-04-11T15:24:56.298Z,85
2023-04-11T15:26:03.290Z,85
2023-04-11T15:27:10.024Z,85
2023-04-11T15:28:16.910Z,85
2023-04-11T15:29:23.913Z,85
2023-04-11T15:30:35.638Z,85
2023-04-11T15:31:42.668Z,86
2023-04-11T15:32:49.559Z,86
2023-04-11T15:33:56.704Z,85
2023-04-11T15:35:03.381Z,85
2023-04-11T15:36:10.379Z,85
2023-04-11T15:37:17.281Z,85
2023-04-11T15:38:24.106Z,85
2023-04-11T15:39:31.018Z,85
2023-04-11T15:40:37.840Z,85
2023-04-11T15:41:45.615Z,85
2023-04-11T15:42:52.522Z,85
2023-04-11T15:44:01.149Z,85
2023-04-11T15:45:07.980Z,85
2023-04-11T15:46:18.608Z,85
2023-04-11T15:47:25.698Z,85
2023-04-11T15:48:34.506Z,85
2023-04-11T15:49:41.315Z,85
2023-04-11T15:50:48.138Z,86
2023-04-11T15:51:55.084Z,86
2023-04-11T15:53:02.065Z,86
2023-04-11T15:54:08.906Z,86
2023-04-11T15:55:15.817Z,86
2023-04-11T15:56:23.623Z,86
2023-04-11T15:57:30.542Z,86
2023-04-11T15:58:37.305Z,86
2023-04-11T15:59:44.216Z,86
2023-04-11T16:00:51.432Z,87